createdAt,value
2023-04-18T00:00:10.313Z,0.00
2023-04-18T00:01:10.301Z,0.00
2023-04-18T00:02:10.304Z,0.00
2023-04-18T00:03:10.556Z,0.00
2023-04-18T00:04:10.640Z,0.00
2023-04-18T00:05:10.293Z,0.00
2023-04-18T00:06:10.261Z,0.00
2023-04-18T00:07:10.211Z,0.00
2023-04-18T00:08:10.210Z,0.00
2023-04-18T00:09:10.216Z,0.00
2023-04-18T00:10:10.178Z,0.00
2023-04-18T00:11:10.188Z,0.00
2023-04-18T00:12:10.215Z,0.00
2023-04-18T00:13:10.142Z,0.00
2023-04-18T00:14:10.136Z,0.00
2023-04-18T00:15:10.134Z,0.00
2023-04-18T00:16:10.129Z,0.00
2023-04-18T00:17:10.187Z,0.00
2023-04-18T00:18:10.166Z,0.00
2023-04-18T00:19:10.090Z,0.00
2023-04-18T00:20:10.093Z,0.00
2023-04-18T00:21:10.088Z,0.00
2023-04-18T00:22:10.054Z,0.00
2023-04-18T00:23:11.534Z,0.00
2023-04-18T00:24:10.042Z,0.00
2023-04-18T00:25:10.030Z,0.00
2023-04-18T00:26:10.044Z,0.00
2023-04-18T00:27:10.027Z,0.00
2023-04-18T00:28:10.001Z,0.00
2023-04-18T00:29:09.983Z,0.00
2023-04-18T00:30:09.983Z,0.00
2023-04-18T00:31:09.980Z,0.00
2023-04-18T00:32:09.957Z,0.00
2023-04-18T00:33:10.034Z,0.00
2023-04-18T00:34:09.933Z,0.00
2023-04-18T00:35:09.961Z,0.00
2023-04-18T00:36:09.944Z,0.00
2023-04-18T00:37:09.935Z,0.00
2023-04-18T00:38:09.885Z,0.00
2023-04-18T00:39:09.866Z,0.00
2023-04-18T00:40:09.896Z,0.00
2023-04-18T00:41:09.851Z,0.00
2023-04-18T00:42:09.858Z,0.00
2023-04-18T00:43:09.853Z,0.00
2023-04-18T00:44:09.817Z,0.00
2023-04-18T00:45:09.866Z,0.00
2023-04-18T00:46:09.935Z,0.00
2023-04-18T00:47:09.782Z,0.00
2023-04-18T00:48:09.817Z,0.00
2023-04-18T00:49:09.765Z,0.00
2023-04-18T00:50:09.801Z,0.00
2023-04-18T00:51:09.755Z,0.00
2023-04-18T00:52:09.740Z,0.00
2023-04-18T00:53:09.729Z,0.00
2023-04-18T00:54:09.711Z,0.00
2023-04-18T00:55:09.711Z,0.00
2023-04-18T00:56:09.708Z,0.00
2023-04-18T00:57:09.683Z,0.00
2023-04-18T00:58:09.715Z,0.00
2023-04-18T00:59:09.660Z,0.00
2023-04-18T01:00:09.690Z,0.00
2023-04-18T01:01:09.664Z,0.00
2023-04-18T01:02:09.665Z,0.00
2023-04-18T01:03:09.684Z,0.00
2023-04-18T01:04:09.779Z,0.00
2023-04-18T01:05:09.683Z,0.00
2023-04-18T01:06:09.645Z,0.00
2023-04-18T01:07:09.583Z,0.00
2023-04-18T01:08:09.580Z,0.00
2023-04-18T01:09:09.564Z,0.00
2023-04-18T01:10:09.586Z,0.00
2023-04-18T01:11:09.533Z,0.00
2023-04-18T01:12:09.533Z,0.00
2023-04-18T01:13:09.535Z,0.00
2023-04-18T01:14:09.540Z,0.00
2023-04-18T01:15:09.505Z,0.00
2023-04-18T01:16:09.529Z,0.00
2023-04-18T01:17:09.464Z,0.00
2023-04-18T01:18:09.547Z,0.00
2023-04-18T01:19:09.531Z,0.00
2023-04-18T01:20:09.449Z,0.00
2023-04-18T01:21:09.429Z,0.00
2023-04-18T01:22:09.421Z,0.00
2023-04-18T01:23:09.458Z,0.00
2023-04-18T01:24:09.438Z,0.00
2023-04-18T01:25:09.401Z,0.00
2023-04-18T01:26:09.373Z,0.00
2023-04-18T01:27:09.429Z,0.00
2023-04-18T01:28:09.434Z,0.00
2023-04-18T01:29:09.352Z,0.00
2023-04-18T01:30:09.383Z,0.00
2023-04-18T01:31:09.358Z,0.00
2023-04-18T01:32:09.353Z,0.00
2023-04-18T01:33:09.314Z,0.00
2023-04-18T01:34:09.314Z,0.00
2023-04-18T01:35:09.283Z,0.00
2023-04-18T01:36:09.262Z,0.00
2023-04-18T01:37:09.326Z,0.00
2023-04-18T01:38:09.272Z,0.00
2023-04-18T01:39:09.262Z,0.00
2023-04-18T01:40:09.320Z,0.00
2023-04-18T01:41:09.231Z,0.00
2023-04-18T01:42:09.240Z,0.00
2023-04-18T01:43:09.198Z,0.00
2023-04-18T01:44:09.209Z,0.00
2023-04-18T01:45:09.195Z,0.00
2023-04-18T01:46:09.198Z,0.00
2023-04-18T01:47:09.145Z,0.00
2023-04-18T01:48:09.192Z,0.00
2023-04-18T01:49:09.130Z,0.00
2023-04-18T01:50:09.159Z,0.00
2023-04-18T01:51:09.112Z,0.00
2023-04-18T01:52:09.117Z,0.00
2023-04-18T01:53:09.080Z,0.00
2023-04-18T01:54:09.124Z,0.00
2023-04-18T01:55:09.083Z,0.00
2023-04-18T01:56:09.074Z,0.00
2023-04-18T01:57:09.078Z,0.00
2023-04-18T01:58:09.052Z,0.00
2023-04-18T01:59:09.035Z,0.00
2023-04-18T02:00:09.056Z,0.00
2023-04-18T02:01:09.045Z,0.00
2023-04-18T02:02:09.045Z,0.00
2023-04-18T02:03:09.140Z,0.00
2023-04-18T02:04:09.072Z,0.00
2023-04-18T02:05:08.996Z,0.00
2023-04-18T02:06:08.955Z,0.00
2023-04-18T02:07:08.945Z,0.00
2023-04-18T02:08:08.944Z,0.00
2023-04-18T02:09:08.940Z,0.00
2023-04-18T02:10:08.940Z,0.00
2023-04-18T02:11:08.913Z,0.00
2023-04-18T02:12:08.899Z,0.00
2023-04-18T02:13:08.892Z,0.00
2023-04-18T02:14:08.892Z,0.00
2023-04-18T02:15:08.887Z,0.00
2023-04-18T02:16:08.908Z,0.00
2023-04-18T02:17:08.863Z,0.00
2023-04-18T02:18:08.842Z,0.00
2023-04-18T02:19:08.826Z,0.00
2023-04-18T02:20:08.829Z,0.00
2023-04-18T02:21:08.806Z,0.00
2023-04-18T02:22:08.881Z,0.00
2023-04-18T02:23:08.803Z,0.00
2023-04-18T02:24:08.769Z,0.00
2023-04-18T02:25:08.790Z,0.00
2023-04-18T02:26:08.738Z,0.00
2023-04-18T02:27:08.747Z,0.00
2023-04-18T02:28:08.729Z,0.00
2023-04-18T02:29:08.722Z,0.00
2023-04-18T02:30:08.718Z,0.00
2023-04-18T02:31:08.698Z,0.00
2023-04-18T02:32:08.722Z,0.00
2023-04-18T02:33:08.777Z,0.00
2023-04-18T02:34:08.686Z,0.00
2023-04-18T02:35:08.663Z,0.00
2023-04-18T02:36:08.652Z,0.00
2023-04-18T02:37:08.631Z,0.00
2023-04-18T02:38:08.638Z,0.00
2023-04-18T02:39:08.644Z,0.00
2023-04-18T02:40:08.629Z,0.00
2023-04-18T02:41:08.592Z,0.00
2023-04-18T02:42:08.572Z,0.00
2023-04-18T02:43:08.578Z,0.00
2023-04-18T02:44:08.560Z,0.00
2023-04-18T02:45:08.571Z,0.00
2023-04-18T02:46:08.586Z,0.00
2023-04-18T02:47:08.534Z,0.00
2023-04-18T02:48:08.563Z,0.00
2023-04-18T02:49:08.504Z,0.00
2023-04-18T02:50:08.870Z,0.00
2023-04-18T02:51:08.487Z,0.00
2023-04-18T02:52:08.505Z,0.00
2023-04-18T02:53:08.469Z,0.00
2023-04-18T02:54:08.476Z,0.00
2023-04-18T02:55:08.445Z,0.00
2023-04-18T02:56:08.435Z,0.00
2023-04-18T02:57:08.423Z,0.00
2023-04-18T02:58:08.407Z,0.00
2023-04-18T02:59:08.480Z,0.00
2023-04-18T03:00:08.387Z,0.00
2023-04-18T03:01:08.392Z,0.00
2023-04-18T03:02:08.421Z,0.00
2023-04-18T03:03:08.405Z,0.00
2023-04-18T03:04:08.358Z,0.00
2023-04-18T03:05:08.369Z,0.00
2023-04-18T03:06:08.324Z,0.00
2023-04-18T03:07:08.321Z,0.00
2023-04-18T03:08:08.316Z,0.00
2023-04-18T03:09:08.323Z,0.00
2023-04-18T03:10:08.304Z,0.00
2023-04-18T03:11:08.292Z,0.00
2023-04-18T03:12:08.308Z,0.00
2023-04-18T03:13:08.308Z,0.00
2023-04-18T03:14:08.240Z,0.00
2023-04-18T03:15:08.252Z,0.00
2023-04-18T03:16:08.266Z,0.00
2023-04-18T03:17:08.229Z,0.00
2023-04-18T03:18:08.337Z,0.00
2023-04-18T03:19:08.185Z,0.00
2023-04-18T03:20:08.220Z,0.00
2023-04-18T03:21:08.165Z,0.00
2023-04-18T03:22:08.164Z,0.00
2023-04-18T03:23:08.153Z,0.00
2023-04-18T03:24:08.855Z,0.00
2023-04-18T03:25:08.171Z,0.00
2023-04-18T03:26:08.127Z,0.00
2023-04-18T03:27:08.111Z,0.00
2023-04-18T03:28:08.090Z,0.00
2023-04-18T03:29:08.095Z,0.00
2023-04-18T03:30:08.095Z,0.00
2023-04-18T03:31:08.178Z,0.00
2023-04-18T03:32:08.003Z,1.00
2023-04-18T03:33:07.993Z,1.00
2023-04-18T03:34:08.032Z,0.00
2023-04-18T03:35:08.047Z,0.00
2023-04-18T03:36:08.005Z,0.00
2023-04-18T03:37:08.030Z,0.00
2023-04-18T03:38:07.973Z,1.00
2023-04-18T03:39:07.925Z,1.00
2023-04-18T03:40:07.932Z,2.00
2023-04-18T03:41:07.898Z,1.00
2023-04-18T03:42:07.985Z,1.00
2023-04-18T03:43:07.893Z,3.00
2023-04-18T03:44:07.900Z,9.00
2023-04-18T03:45:07.854Z,7.00
2023-04-18T03:46:07.973Z,4.00
2023-04-18T03:47:07.855Z,4.00
2023-04-18T03:48:07.838Z,7.00
2023-04-18T03:49:07.834Z,11.00
2023-04-18T03:50:07.820Z,11.00
2023-04-18T03:51:07.804Z,13.00
2023-04-18T03:52:07.786Z,15.00
2023-04-18T03:53:07.797Z,17.00
2023-04-18T03:54:07.769Z,20.00
2023-04-18T03:55:07.783Z,25.00
2023-04-18T03:56:07.745Z,29.00
2023-04-18T03:57:07.742Z,32.00
2023-04-18T03:58:07.734Z,33.00
2023-04-18T03:59:07.731Z,38.00
2023-04-18T04:00:07.707Z,50.00
2023-04-18T04:01:07.696Z,57.00
2023-04-18T04:02:07.859Z,65.00
2023-04-18T04:03:07.838Z,70.00
2023-04-18T04:04:07.733Z,80.00
2023-04-18T04:05:07.789Z,89.00
2023-04-18T04:06:07.653Z,98.00
2023-04-18T04:07:07.679Z,108.00
2023-04-18T04:08:07.645Z,114.00
2023-04-18T04:09:07.609Z,127.00
2023-04-18T04:10:07.596Z,132.00
2023-04-18T04:11:07.594Z,147.00
2023-04-18T04:12:07.625Z,161.00
2023-04-18T04:13:07.579Z,177.00
2023-04-18T04:14:07.582Z,188.00
2023-04-18T04:15:07.545Z,200.00
2023-04-18T04:16:07.577Z,216.00
2023-04-18T04:17:07.525Z,231.00
2023-04-18T04:18:07.538Z,248.00
2023-04-18T04:19:08.445Z,263.00
2023-04-18T04:20:07.700Z,276.00
2023-04-18T04:21:07.660Z,293.00
2023-04-18T04:22:07.586Z,308.00
2023-04-18T04:23:07.496Z,323.00
2023-04-18T04:24:07.518Z,338.00
2023-04-18T04:25:07.491Z,359.00
2023-04-18T04:26:07.473Z,382.00
2023-04-18T04:27:07.446Z,403.00
2023-04-18T04:28:07.421Z,421.00
2023-04-18T04:29:07.445Z,440.00
2023-04-18T04:30:07.408Z,457.00
2023-04-18T04:31:07.448Z,474.00
2023-04-18T04:32:07.436Z,493.00
2023-04-18T04:33:07.416Z,516.00
2023-04-18T04:34:07.369Z,532.00
2023-04-18T04:35:07.365Z,550.00
2023-04-18T04:36:07.327Z,561.00
2023-04-18T04:37:07.325Z,579.00
2023-04-18T04:38:07.333Z,602.00
2023-04-18T04:39:07.294Z,619.00
2023-04-18T04:40:07.276Z,633.00
2023-04-18T04:41:07.268Z,652.00
2023-04-18T04:42:07.262Z,661.00
2023-04-18T04:43:07.281Z,670.00
2023-04-18T04:44:07.247Z,679.00
2023-04-18T04:45:07.222Z,716.00
2023-04-18T04:46:07.247Z,725.00
2023-04-18T04:47:07.211Z,741.00
2023-04-18T04:48:07.259Z,768.00
2023-04-18T04:49:07.197Z,778.00
2023-04-18T04:50:07.180Z,797.00
2023-04-18T04:51:07.162Z,833.00
2023-04-18T04:52:07.154Z,855.00
2023-04-18T04:53:07.175Z,881.00
2023-04-18T04:54:07.139Z,836.00
2023-04-18T04:55:07.140Z,809.00
2023-04-18T04:56:07.154Z,807.00
2023-04-18T04:57:07.106Z,812.00
2023-04-18T04:58:07.148Z,813.00
2023-04-18T04:59:07.076Z,818.00
2023-04-18T05:00:07.067Z,823.00
2023-04-18T05:01:07.121Z,829.00
2023-04-18T05:02:07.139Z,838.00
2023-04-18T05:03:07.218Z,848.00
2023-04-18T05:04:07.119Z,859.00
2023-04-18T05:05:07.027Z,868.00
2023-04-18T05:06:07.006Z,889.00
2023-04-18T05:07:07.420Z,917.00
2023-04-18T05:08:07.038Z,947.00
2023-04-18T05:09:07.026Z,965.00
2023-04-18T05:10:06.960Z,992.00
2023-04-18T05:11:06.987Z,1058.00
2023-04-18T05:12:06.948Z,1070.00
2023-04-18T05:13:06.991Z,1037.00
2023-04-18T05:14:06.920Z,1119.00
2023-04-18T05:15:06.924Z,1160.00
2023-04-18T05:16:06.934Z,1425.00
2023-04-18T05:17:06.977Z,1698.00
2023-04-18T05:18:06.901Z,1550.00
2023-04-18T05:19:06.874Z,1378.00
2023-04-18T05:20:06.857Z,1337.00
2023-04-18T05:21:06.875Z,1353.00
2023-04-18T05:22:06.858Z,1374.00
2023-04-18T05:23:06.848Z,1344.00
2023-04-18T05:24:06.844Z,1317.00
2023-04-18T05:25:06.818Z,1337.00
2023-04-18T05:26:06.813Z,1323.00
2023-04-18T05:27:06.794Z,1407.00
2023-04-18T05:28:06.786Z,1474.00
2023-04-18T05:29:06.781Z,1432.00
2023-04-18T05:30:06.749Z,1610.00
2023-04-18T05:31:06.816Z,1907.00
2023-04-18T05:32:06.774Z,1581.00
2023-04-18T05:33:06.808Z,1723.00
2023-04-18T05:34:06.719Z,1539.00
2023-04-18T05:35:06.715Z,1407.00
2023-04-18T05:36:06.735Z,1377.00
2023-04-18T05:37:06.722Z,1358.00
2023-04-18T05:38:06.718Z,1351.00
2023-04-18T05:39:06.690Z,1428.00
2023-04-18T05:40:06.659Z,1413.00
2023-04-18T05:41:06.677Z,1583.00
2023-04-18T05:42:06.662Z,1768.00
2023-04-18T05:43:06.671Z,1924.00
2023-04-18T05:44:06.647Z,1956.00
2023-04-18T05:45:06.653Z,2100.00
2023-04-18T05:46:06.666Z,2126.00
2023-04-18T05:47:06.693Z,1834.00
2023-04-18T05:48:06.608Z,2002.00
2023-04-18T05:49:06.575Z,1975.00
2023-04-18T05:50:06.578Z,2135.00
2023-04-18T05:51:06.536Z,2075.00
2023-04-18T05:52:06.562Z,2163.00
2023-04-18T05:53:06.517Z,2467.00
2023-04-18T05:54:06.513Z,2453.00
2023-04-18T05:55:06.519Z,2379.00
2023-04-18T05:56:06.478Z,2039.00
2023-04-18T05:57:06.499Z,2154.00
2023-04-18T05:58:06.460Z,2096.00
2023-04-18T05:59:06.463Z,2351.00
2023-04-18T06:00:06.449Z,2589.00
2023-04-18T06:01:06.443Z,2643.00
2023-04-18T06:02:06.517Z,2615.00
2023-04-18T06:03:08.555Z,2569.00
2023-04-18T06:04:06.534Z,2725.00
2023-04-18T06:05:06.542Z,2410.00
2023-04-18T06:06:06.386Z,2287.00
2023-04-18T06:07:06.402Z,2324.00
2023-04-18T06:08:06.355Z,2436.00
2023-04-18T06:09:06.359Z,2274.00
2023-04-18T06:10:06.341Z,2435.00
2023-04-18T06:11:06.326Z,2664.00
2023-04-18T06:12:06.350Z,2424.00
2023-04-18T06:13:06.305Z,3034.00
2023-04-18T06:14:06.291Z,2638.00
2023-04-18T06:15:06.286Z,2608.00
2023-04-18T06:16:06.291Z,2715.00
2023-04-18T06:17:06.285Z,2855.00
2023-04-18T06:18:06.286Z,2659.00
2023-04-18T06:19:06.257Z,2608.00
2023-04-18T06:20:06.271Z,2789.00
2023-04-18T06:21:06.226Z,3148.00
2023-04-18T06:22:06.221Z,2624.00
2023-04-18T06:23:06.213Z,2838.00
2023-04-18T06:24:06.192Z,3224.00
2023-04-18T06:25:06.177Z,3241.00
2023-04-18T06:26:06.168Z,3140.00
2023-04-18T06:27:06.181Z,2983.00
2023-04-18T06:28:06.145Z,2869.00
2023-04-18T06:29:06.137Z,3048.00
2023-04-18T06:30:06.131Z,2788.00
2023-04-18T06:31:06.186Z,2903.00
2023-04-18T06:32:06.124Z,2699.00
2023-04-18T06:33:06.103Z,2584.00
2023-04-18T06:34:06.107Z,2778.00
2023-04-18T06:35:06.082Z,2637.00
2023-04-18T06:36:06.074Z,3078.00
2023-04-18T06:37:06.068Z,3128.00
2023-04-18T06:38:06.044Z,3179.00
2023-04-18T06:39:06.037Z,3176.00
2023-04-18T06:40:06.040Z,2727.00
2023-04-18T06:41:06.037Z,2440.00
2023-04-18T06:42:06.018Z,2186.00
2023-04-18T06:43:05.993Z,1859.00
2023-04-18T06:44:05.981Z,1886.00
2023-04-18T06:45:05.980Z,2060.00
2023-04-18T06:46:06.174Z,2202.00
2023-04-18T06:47:06.002Z,2367.00
2023-04-18T06:48:06.001Z,2492.00
2023-04-18T06:49:05.943Z,2586.00
2023-04-18T06:50:05.940Z,2824.00
2023-04-18T06:51:05.908Z,2743.00
2023-04-18T06:52:05.964Z,2552.00
2023-04-18T06:53:05.886Z,2605.00
2023-04-18T06:54:05.920Z,2811.00
2023-04-18T06:55:05.875Z,3517.00
2023-04-18T06:56:05.870Z,3430.00
2023-04-18T06:57:05.855Z,3367.00
2023-04-18T06:58:05.840Z,3482.00
2023-04-18T06:59:05.826Z,3550.00
2023-04-18T07:00:05.828Z,3809.00
2023-04-18T07:01:05.825Z,3644.00
2023-04-18T07:02:05.807Z,3663.00
2023-04-18T07:03:07.068Z,3707.00
2023-04-18T07:04:05.909Z,3944.00
2023-04-18T07:05:05.764Z,4350.00
2023-04-18T07:06:05.755Z,4550.00
2023-04-18T07:07:05.790Z,4647.00
2023-04-18T07:08:05.760Z,5021.00
2023-04-18T07:09:05.728Z,5236.00
2023-04-18T07:10:05.705Z,4373.00
2023-04-18T07:11:05.689Z,4797.00
2023-04-18T07:12:05.700Z,4316.00
2023-04-18T07:13:05.716Z,4178.00
2023-04-18T07:14:05.686Z,4184.00
2023-04-18T07:15:05.650Z,3964.00
2023-04-18T07:16:05.650Z,5092.00
2023-04-18T07:17:05.732Z,4927.00
2023-04-18T07:18:05.694Z,4656.00
2023-04-18T07:19:05.610Z,4782.00
2023-04-18T07:20:05.635Z,5021.00
2023-04-18T07:21:05.583Z,5013.00
2023-04-18T07:22:05.593Z,5192.00
2023-04-18T07:23:05.601Z,5364.00
2023-04-18T07:24:05.635Z,5301.00
2023-04-18T07:25:05.546Z,5435.00
2023-04-18T07:26:05.569Z,5587.00
2023-04-18T07:27:05.549Z,5743.00
2023-04-18T07:28:05.525Z,5883.00
2023-04-18T07:29:05.498Z,5701.00
2023-04-18T07:30:05.495Z,5126.00
2023-04-18T07:31:05.495Z,5973.00
2023-04-18T07:32:06.887Z,5669.00
2023-04-18T07:33:05.608Z,6875.00
2023-04-18T07:34:05.455Z,4606.00
2023-04-18T07:35:05.434Z,6287.00
2023-04-18T07:36:05.450Z,5889.00
2023-04-18T07:37:05.445Z,4807.00
2023-04-18T07:38:05.420Z,4759.00
2023-04-18T07:39:05.406Z,4598.00
2023-04-18T07:40:05.400Z,4260.00
2023-04-18T07:41:05.410Z,3950.00
2023-04-18T07:42:05.407Z,3893.00
2023-04-18T07:43:05.363Z,4716.00
2023-04-18T07:44:05.449Z,5301.00
2023-04-18T07:45:05.345Z,4987.00
2023-04-18T07:46:05.367Z,5237.00
2023-04-18T07:47:05.346Z,5139.00
2023-04-18T07:48:05.347Z,4813.00
2023-04-18T07:49:05.308Z,4516.00
2023-04-18T07:50:05.293Z,4575.00
2023-04-18T07:51:05.275Z,4240.00
2023-04-18T07:52:05.279Z,3768.00
2023-04-18T07:53:05.265Z,3693.00
2023-04-18T07:54:05.267Z,4443.00
2023-04-18T07:55:05.234Z,4666.00
2023-04-18T07:56:05.232Z,4628.00
2023-04-18T07:57:05.239Z,4457.00
2023-04-18T07:58:05.219Z,4117.00
2023-04-18T07:59:05.198Z,3858.00
2023-04-18T08:00:05.232Z,3575.00
2023-04-18T08:01:05.184Z,3410.00
2023-04-18T08:02:05.253Z,3830.00
2023-04-18T08:03:05.363Z,3641.00
2023-04-18T08:04:05.312Z,3666.00
2023-04-18T08:05:05.217Z,3763.00
2023-04-18T08:06:05.143Z,3896.00
2023-04-18T08:07:05.157Z,3630.00
2023-04-18T08:08:05.130Z,4214.00
2023-04-18T08:09:05.138Z,4061.00
2023-04-18T08:10:05.093Z,3875.00
2023-04-18T08:11:05.079Z,3854.00
2023-04-18T08:12:05.098Z,3968.00
2023-04-18T08:13:05.072Z,3758.00
2023-04-18T08:14:05.042Z,3508.00
2023-04-18T08:15:05.037Z,3451.00
2023-04-18T08:16:05.056Z,3322.00
2023-04-18T08:17:05.035Z,3066.00
2023-04-18T08:18:05.071Z,3037.00
2023-04-18T08:19:04.981Z,3112.00
2023-04-18T08:20:04.994Z,3091.00
2023-04-18T08:21:04.972Z,3205.00
2023-04-18T08:22:04.970Z,3155.00
2023-04-18T08:23:08.673Z,3058.00
2023-04-18T08:24:04.935Z,3092.00
2023-04-18T08:25:05.858Z,3087.00
2023-04-18T08:26:04.925Z,3101.00
2023-04-18T08:27:04.934Z,2952.00
2023-04-18T08:28:04.902Z,3085.00
2023-04-18T08:29:04.890Z,3100.00
2023-04-18T08:30:04.912Z,2881.00
2023-04-18T08:31:04.862Z,2831.00
2023-04-18T08:32:04.907Z,2992.00
2023-04-18T08:33:04.893Z,3122.00
2023-04-18T08:34:05.291Z,3182.00
2023-04-18T08:35:04.887Z,3151.00
2023-04-18T08:36:04.814Z,3149.00
2023-04-18T08:37:04.820Z,3167.00
2023-04-18T08:38:04.814Z,3069.00
2023-04-18T08:39:04.788Z,2941.00
2023-04-18T08:40:04.766Z,3231.00
2023-04-18T08:41:04.760Z,3415.00
2023-04-18T08:42:04.772Z,3372.00
2023-04-18T08:43:04.757Z,3382.00
2023-04-18T08:44:04.735Z,3156.00
2023-04-18T08:45:04.715Z,3301.00
2023-04-18T08:46:04.740Z,3430.00
2023-04-18T08:47:04.721Z,3392.00
2023-04-18T08:48:04.772Z,3216.00
2023-04-18T08:49:04.671Z,3403.00
2023-04-18T08:50:04.686Z,3479.00
2023-04-18T08:51:04.646Z,2997.00
2023-04-18T08:52:04.664Z,3185.00
2023-04-18T08:53:04.633Z,3097.00
2023-04-18T08:54:04.716Z,2970.00
2023-04-18T08:55:04.604Z,3304.00
2023-04-18T08:56:04.603Z,3775.00
2023-04-18T08:57:04.615Z,4200.00
2023-04-18T08:58:04.582Z,4286.00
2023-04-18T08:59:04.564Z,4173.00
2023-04-18T09:00:04.558Z,4814.00
2023-04-18T09:01:04.648Z,5000.00
2023-04-18T09:02:04.592Z,4787.00
2023-04-18T09:03:04.732Z,5144.00
2023-04-18T09:04:04.593Z,6464.00
2023-04-18T09:05:04.508Z,7749.00
2023-04-18T09:06:04.493Z,8223.00
2023-04-18T09:07:04.504Z,9384.00
2023-04-18T09:08:04.476Z,11202.00
2023-04-18T09:09:04.470Z,12684.00
2023-04-18T09:10:04.455Z,11380.00
2023-04-18T09:11:04.454Z,11772.00
2023-04-18T09:12:04.445Z,11178.00
2023-04-18T09:13:04.457Z,9303.00
2023-04-18T09:14:04.412Z,10120.00
2023-04-18T09:15:04.409Z,10830.00
2023-04-18T09:16:04.392Z,11273.00
2023-04-18T09:17:04.397Z,11267.00
2023-04-18T09:18:04.444Z,11598.00
2023-04-18T09:19:06.800Z,11926.00
2023-04-18T09:20:04.349Z,11691.00
2023-04-18T09:21:04.335Z,11784.00
2023-04-18T09:22:04.351Z,12067.00
2023-04-18T09:23:04.347Z,11969.00
2023-04-18T09:24:04.320Z,12313.00
2023-04-18T09:25:04.308Z,12276.00
2023-04-18T09:26:04.313Z,10737.00
2023-04-18T09:27:04.301Z,11990.00
2023-04-18T09:28:04.267Z,10244.00
2023-04-18T09:29:04.256Z,12436.00
2023-04-18T09:30:04.265Z,10495.00
2023-04-18T09:31:04.276Z,10682.00
2023-04-18T09:32:04.260Z,10790.00
2023-04-18T09:33:04.255Z,11634.00
2023-04-18T09:34:04.214Z,10975.00
2023-04-18T09:35:04.945Z,10322.00
2023-04-18T09:36:04.192Z,10384.00
2023-04-18T09:37:04.247Z,9955.00
2023-04-18T09:38:04.197Z,9613.00
2023-04-18T09:39:04.165Z,9427.00
2023-04-18T09:40:04.196Z,9394.00
2023-04-18T09:41:04.139Z,9358.00
2023-04-18T09:42:04.144Z,9484.00
2023-04-18T09:43:04.113Z,9514.00
2023-04-18T09:44:04.116Z,9770.00
2023-04-18T09:45:04.096Z,9639.00
2023-04-18T09:46:04.136Z,9617.00
2023-04-18T09:47:04.073Z,9536.00
2023-04-18T09:48:04.104Z,9650.00
2023-04-18T09:49:04.065Z,9925.00
2023-04-18T09:50:04.049Z,9914.00
2023-04-18T09:51:04.030Z,9849.00
2023-04-18T09:52:04.054Z,9065.00
2023-04-18T09:53:04.014Z,8916.00
2023-04-18T09:54:03.998Z,9071.00
2023-04-18T09:55:03.987Z,8957.00
2023-04-18T09:56:03.981Z,8603.00
2023-04-18T09:57:03.959Z,7941.00
2023-04-18T09:58:03.994Z,7584.00
2023-04-18T09:59:03.951Z,7426.00
2023-04-18T10:00:03.965Z,7786.00
2023-04-18T10:01:04.001Z,8095.00
2023-04-18T10:02:04.013Z,8529.00
2023-04-18T10:03:04.004Z,8842.00
2023-04-18T10:04:03.991Z,9008.00
2023-04-18T10:05:04.058Z,9063.00
2023-04-18T10:06:03.942Z,9377.00
2023-04-18T10:07:03.906Z,9422.00
2023-04-18T10:08:03.887Z,9437.00
2023-04-18T10:09:03.885Z,9777.00
2023-04-18T10:10:03.830Z,10584.00
2023-04-18T10:11:03.839Z,10995.00
2023-04-18T10:12:03.897Z,11309.00
2023-04-18T10:13:03.792Z,11142.00
2023-04-18T10:14:03.782Z,11225.00
2023-04-18T10:15:03.808Z,10869.00
2023-04-18T10:16:03.846Z,10069.00
2023-04-18T10:17:03.772Z,10281.00
2023-04-18T10:18:06.247Z,10335.00
2023-04-18T10:19:03.732Z,10356.00
2023-04-18T10:20:03.888Z,10688.00
2023-04-18T10:21:03.718Z,10613.00
2023-04-18T10:22:03.710Z,10189.00
2023-04-18T10:23:03.688Z,10538.00
2023-04-18T10:24:03.681Z,10921.00
2023-04-18T10:25:03.682Z,10819.00
2023-04-18T10:26:03.668Z,10778.00
2023-04-18T10:27:03.644Z,10436.00
2023-04-18T10:28:03.654Z,10342.00
2023-04-18T10:29:03.642Z,10398.00
2023-04-18T10:30:03.634Z,10260.00
2023-04-18T10:31:03.697Z,10569.00
2023-04-18T10:32:03.609Z,10297.00
2023-04-18T10:33:03.613Z,10029.00
2023-04-18T10:34:05.738Z,9886.00
2023-04-18T10:35:03.566Z,9611.00
2023-04-18T10:36:03.583Z,9239.00
2023-04-18T10:37:03.565Z,9177.00
2023-04-18T10:38:03.541Z,9096.00
2023-04-18T10:39:03.656Z,9408.00
2023-04-18T10:40:03.538Z,10124.00
2023-04-18T10:41:03.530Z,10224.00
2023-04-18T10:42:03.491Z,9158.00
2023-04-18T10:43:03.489Z,9780.00
2023-04-18T10:44:03.469Z,10584.00
2023-04-18T10:45:03.462Z,10829.00
2023-04-18T10:46:03.472Z,9413.00
2023-04-18T10:47:03.533Z,8166.00
2023-04-18T10:48:03.510Z,9359.00
2023-04-18T10:49:03.449Z,9684.00
2023-04-18T10:50:05.967Z,9907.00
2023-04-18T10:51:03.418Z,8802.00
2023-04-18T10:52:03.405Z,8878.00
2023-04-18T10:53:03.398Z,8516.00
2023-04-18T10:54:03.383Z,8172.00
2023-04-18T10:55:03.364Z,8200.00
2023-04-18T10:56:03.399Z,8120.00
2023-04-18T10:57:03.350Z,7929.00
2023-04-18T10:58:03.337Z,8284.00
2023-04-18T10:59:03.321Z,8301.00
2023-04-18T11:00:03.305Z,8252.00
2023-04-18T11:01:03.388Z,9041.00
2023-04-18T11:02:03.302Z,9388.00
2023-04-18T11:03:03.493Z,9420.00
2023-04-18T11:04:03.336Z,9515.00
2023-04-18T11:05:03.276Z,8834.00
2023-04-18T11:06:03.277Z,8870.00
2023-04-18T11:07:03.249Z,8750.00
2023-04-18T11:08:03.219Z,8953.00
2023-04-18T11:09:03.218Z,8597.00
2023-04-18T11:10:03.204Z,8948.00
2023-04-18T11:11:03.245Z,9067.00
2023-04-18T11:12:03.176Z,8169.00
2023-04-18T11:13:03.180Z,8896.00
2023-04-18T11:14:03.498Z,9302.00
2023-04-18T11:15:03.169Z,9522.00
2023-04-18T11:16:03.166Z,10016.00
2023-04-18T11:17:03.132Z,10066.00
2023-04-18T11:18:03.186Z,9747.00
2023-04-18T11:19:03.151Z,10099.00
2023-04-18T11:20:03.117Z,10361.00
2023-04-18T11:21:03.153Z,10213.00
2023-04-18T11:22:03.084Z,9920.00
2023-04-18T11:23:03.072Z,9639.00
2023-04-18T11:24:03.064Z,9587.00
2023-04-18T11:25:03.056Z,9348.00
2023-04-18T11:26:03.055Z,8778.00
2023-04-18T11:27:03.034Z,9215.00
2023-04-18T11:28:03.010Z,8859.00
2023-04-18T11:29:03.036Z,8724.00
2023-04-18T11:30:03.008Z,8909.00
2023-04-18T11:31:03.049Z,8817.00
2023-04-18T11:32:03.036Z,8709.00
2023-04-18T11:33:03.039Z,8772.00
2023-04-18T11:34:02.949Z,8708.00
2023-04-18T11:35:02.950Z,8727.00
2023-04-18T11:36:02.945Z,8711.00
2023-04-18T11:37:02.963Z,8683.00
2023-04-18T11:38:02.907Z,7982.00
2023-04-18T11:39:02.917Z,8203.00
2023-04-18T11:40:02.906Z,8162.00
2023-04-18T11:41:02.950Z,8206.00
2023-04-18T11:42:02.898Z,8162.00
2023-04-18T11:43:02.890Z,8150.00
2023-04-18T11:44:02.852Z,7527.00
2023-04-18T11:45:02.942Z,7636.00
2023-04-18T11:46:03.000Z,7766.00
2023-04-18T11:47:02.824Z,7753.00
2023-04-18T11:48:02.858Z,7584.00
2023-04-18T11:49:02.802Z,7250.00
2023-04-18T11:50:02.796Z,7454.00
2023-04-18T11:51:02.792Z,7563.00
2023-04-18T11:52:02.773Z,7780.00
2023-04-18T11:53:02.753Z,6933.00
2023-04-18T11:54:02.750Z,6511.00
2023-04-18T11:55:02.746Z,7247.00
2023-04-18T11:56:02.745Z,7887.00
2023-04-18T11:57:02.712Z,8148.00
2023-04-18T11:58:02.707Z,8756.00
2023-04-18T11:59:02.698Z,8817.00
2023-04-18T12:00:02.686Z,8271.00
2023-04-18T12:01:02.692Z,7709.00
2023-04-18T12:02:15.345Z,7531.00
2023-04-18T12:03:02.939Z,7449.00
2023-04-18T12:04:03.140Z,7535.00
2023-04-18T12:05:02.921Z,6732.00
2023-04-18T12:06:02.737Z,6795.00
2023-04-18T12:07:02.646Z,7162.00
2023-04-18T12:08:02.602Z,7427.00
2023-04-18T12:09:02.600Z,7341.00
2023-04-18T12:10:02.577Z,7379.00
2023-04-18T12:11:02.595Z,7153.00
2023-04-18T12:12:02.564Z,6848.00
2023-04-18T12:13:02.545Z,7110.00
2023-04-18T12:14:03.994Z,6159.00
2023-04-18T12:15:02.586Z,6171.00
2023-04-18T12:16:02.602Z,4563.00
2023-04-18T12:17:02.517Z,5290.00
2023-04-18T12:18:02.584Z,6940.00
2023-04-18T12:19:02.490Z,7096.00
2023-04-18T12:20:02.513Z,7005.00
2023-04-18T12:21:02.486Z,5673.00
2023-04-18T12:22:02.447Z,6548.00
2023-04-18T12:23:02.452Z,6512.00
2023-04-18T12:24:02.435Z,5154.00
2023-04-18T12:25:02.450Z,4400.00
2023-04-18T12:26:02.420Z,6165.00
2023-04-18T12:27:02.421Z,7772.00